Home   Weather   Sanguantang   Past weeks
Flag for China

Past Weather in Sanguantang, Shanghai Municipality, China — Yesterday and Last 2 Weeks

Currently: 72 °F. Light rain. Clear. (Weather station: Shanghai Hongqiao Airport, China). See more current weather

Past Weather in Sanguantang — Graph

°F

Sanguantang Temperature Yesterday

Maximum temperature yesterday: 86 °F (at 1:30 pm)
Minimum temperature yesterday: 64 °F (at 4:00 am)
Average temperature yesterday: 75 °F

High & Low Weather Summary for the Past Weeks

 TemperatureHumidityPressure
High86 °F (May 27, 1:30 pm)100% (May 20, 6:00 pm)30.09 "Hg (May 20, 6:00 pm)
Low54 °F (May 14, 4:30 am)17% (May 18, 3:30 pm)29.65 "Hg (May 28, 3:30 am)
Average70 °F63%29.91 "Hg
* Reported May 13 8:00 am — May 28 8:30 am, Sanguantang. Weather by CustomWeather, © 2022

Note: Actual official high and low records may vary slightly from our data, if they occured in-between our weather recording intervals... More about our weather records

Sanguantang Weather History for the Previous 24 Hours

Scroll right to see more
 ConditionsComfort  
Time TempWeatherWind HumidityBarometerVisibility
8:30 am
Sat, May 28
72 °FLight rain. Clear.13 mph83%29.71 "HgN/A
8:00 am73 °FSunny.10 mph74%29.71 "Hg10 mi
7:30 am73 °FSunny.10 mph74%29.71 "Hg10 mi
7:00 am72 °FSunny.13 mph73%29.68 "Hg10 mi
6:30 am72 °FSunny.10 mph73%29.71 "Hg10 mi
6:00 am72 °FSunny.10 mph73%29.68 "Hg10 mi
5:00 am70 °FSunny.6 mph78%29.68 "Hg10 mi
4:30 am72 °FClear.6 mph73%29.68 "Hg10 mi
4:00 am72 °FClear.6 mph73%29.65 "Hg10 mi
3:30 am72 °FClear.6 mph69%29.65 "Hg10 mi
3:00 am72 °FClear.8 mph69%29.68 "Hg10 mi
2:00 am72 °FClear.8 mph69%29.68 "Hg10 mi
1:30 am72 °FClear.10 mph69%29.68 "Hg10 mi
1:00 am72 °FClear.8 mph69%29.68 "Hg10 mi
12:30 am72 °FClear.8 mph69%29.71 "Hg10 mi
12:00 am73 °FPassing clouds.6 mph69%29.71 "HgN/A
11:30 pm
Fri, May 27
73 °FClear.6 mph69%29.74 "Hg10 mi
11:00 pm73 °FClear.6 mph69%29.74 "Hg10 mi
10:30 pm73 °FClear.8 mph69%29.74 "Hg10 mi
10:00 pm73 °FClear.10 mph69%29.74 "Hg10 mi
9:30 pm73 °FClear.10 mph69%29.74 "Hg10 mi
9:00 pm75 °FClear.10 mph69%29.74 "Hg10 mi
8:30 pm75 °FClear.8 mph65%29.74 "Hg10 mi
8:00 pm75 °FClear.10 mph65%29.71 "Hg10 mi
7:30 pm75 °FClear.10 mph65%29.71 "Hg10 mi
7:00 pm77 °FClear.8 mph61%29.71 "Hg10 mi
6:30 pm77 °FSunny.8 mph61%29.68 "Hg10 mi
5:30 pm79 °FPartly sunny.13 mph58%29.68 "HgN/A
5:00 pm79 °FPartly sunny.13 mph58%29.68 "HgN/A
4:30 pm81 °FPartly sunny.10 mph58%29.68 "HgN/A
4:00 pm82 °FSunny.13 mph58%29.68 "Hg10 mi
3:30 pm86 °FSunny.1 mph40%29.68 "Hg10 mi
3:00 pm84 °FPassing clouds.3 mph45%29.68 "HgN/A
2:30 pm86 °FScattered clouds.1 mph43%29.68 "HgN/A
1:30 pm86 °FScattered clouds.3 mph46%29.71 "HgN/A
1:00 pm84 °FScattered clouds.3 mph48%29.71 "HgN/A
12:30 pm84 °FScattered clouds.3 mph55%29.71 "HgN/A
12:00 pm82 °FScattered clouds.3 mph51%29.74 "Hg5 mi
11:30 am82 °FPassing clouds.1 mph58%29.74 "Hg5 mi
11:00 am79 °FClear.1 mph61%29.74 "Hg5 mi
10:30 am77 °FClear.1 mph65%29.74 "Hg5 mi
10:00 am77 °FClear.3 mph65%29.74 "Hg5 mi
9:30 am77 °FClear.1 mph65%29.74 "Hg5 mi
9:00 am75 °FClear.1 mph69%29.74 "Hg5 mi
Weather by CustomWeather, © 2022

See weather overview